ADDS METAR Data INFO
IDs: Format: Raw Decoded Include TAF

Data at: 1133 UTC 29 May 2017

KCLL 291113Z AUTO 34006KT 6SM BR BKN002 21/21 A2995 RMK AO2 T02060206
KCLL 291101Z AUTO 33006KT 8SM SCT002 21/21 A2994 RMK AO2 PRESRR T02060206
KCLL 291053Z AUTO 32005KT 8SM CLR 21/21 A2993 RMK AO2 PRESRR SLP130 T02060206
KCLL 290953Z AUTO 25003KT 9SM CLR 21/21 A2992 RMK AO2 SLP127 T02060206
KCLL 290853Z AUTO 24004KT 10SM CLR 21/21 A2994 RMK AO2 SLP132 60000 T02110206 50002
KCLL 290753Z AUTO 00000KT 10SM SCT013 22/21 A2997 RMK AO2 SLP142 T02170211
KCLL 290743Z AUTO 12004KT 10SM FEW007 BKN013 BKN018 22/21 A2997 RMK AO2 T02170211
KCLL 290653Z AUTO 07007KT 10SM BKN007 OVC110 22/21 A2995 RMK AO2 RAE01 CIG 006V011 SLP135 P0000 T02170211
KCLL 290616Z AUTO 08009KT 10SM BKN007 BKN110 22/22 A2995 RMK AO2 RAE01 P0000 T02220217
KCLL 290607Z AUTO 08013G20KT 10SM SCT007 BKN110 22/21 A2993 RMK AO2 RAE01 P0000 T02220211
KCLL 290553Z AUTO 09014G21KT 10SM -RA FEW044 FEW080 BKN110 22/21 A2993 RMK AO2 SLP131 P0001 60021 T02220211 10306 20211 403330211 58006
KCLL 290453Z AUTO 13007KT 10SM -RA FEW110 21/21 A3001 RMK AO2 RAE0355B20 SLP158 P0001 T02110206
KCLL 290353Z AUTO 19006KT 10SM -RA SCT110 21/20 A3001 RMK AO2 LTG DSNT ALQDS RAE17B45 TSE22 SLP158 P0000 T02110200
KCLL 290337Z AUTO VRB03KT 10SM CLR 22/19 A3000 RMK AO2 LTG DSNT NW-E RAE17 TSE22 PRESRR P0000 T02220194
KCLL 290328Z AUTO 06006KT 10SM VCTS FEW080 22/19 A2997 RMK AO2 LTG DSNT N-E RAE17 TSE22 P0000 T02220194
KCLL 290253Z AUTO 36014KT 10SM -TSRA SCT110 22/21 A2995 RMK AO2 PK WND 36031/0227 WSHFT 0213 LTG DSNT ALQDS RAB0154 TSB00 SLP137 P0019 60019 T02170206 53020
KCLL 290227Z AUTO 35023G31KT 3SM +TSRA BR SCT050 BKN080 OVC110 22/19 A2995 RMK AO2 PK WND 36031/0227 WSHFT 0213 LTG DSNT ALQDS RAB0154 TSB00 P0017 T02170194
KCLL 290206Z AUTO 27016G29KT 10SM -TSRA FEW060 SCT085 BKN110 23/19 A2995 RMK AO2 PK WND 27029/0200 LTG DSNT ALQDS RAB0154 TSB00 P0000 T02280189
KCLL 290153Z AUTO 25024G31KT 10SM VCTS FEW065 SCT080 23/18 A2994 RMK AO2 PK WND 33032/0106 LTG DSNT ALQDS RAB14E42 TSE0059B01E22 PRESRR SLP132 P0000 T02330183
KCLL 290128Z 29012G23KT 10SM VCTS -RA SCT050 BKN070 23/18 A2988 RMK AO2 PK WND 33032/0106 LTG DSNT ALQDS RAB14 TSE0059B01E22 P0000 T02280183
KCLL 290053Z 32022G30KT 10SM TS BKN035 BKN055 24/20 A2989 RMK AO2 PK WND 31030/0052 WSHFT 0032 LTG DSNT W-NE TSB35 SLP117 T02440200
KCLL 290041Z 32017G28KT 10SM TS SCT037 SCT050 BKN060 27/21 A2988 RMK AO2 PK WND 33029/0038 LTG DSNT W-NE TSB35 PRESRR T02670206
KCLL 290030Z 27008KT 10SM VCTS CLR 29/24 A2986 RMK AO2 LTG DSNT W-N PRESRR T02940239
KCLL 282353Z 17010KT 10SM CLR 31/24 A2980 RMK AO2 LTG DSNT W-N PRESFR SLP086 T03060239 10333 20306 56029
KCLL 282253Z 17010KT 9SM CLR 32/24 A2982 RMK AO2 LTG DSNT NW SLP093 T03170239
KCLL 282153Z 15013KT 10SM CLR 33/24 A2985 RMK AO2 SLP101 T03280244
KCLL 282053Z 16012G17KT 10SM SCT041 BKN049 OVC060 33/24 A2989 RMK AO2 SLP115 T03280239 56010
KCLL 281953Z 17012KT 10SM CLR 33/23 A2989 RMK AO2 SLP116 T03280233
KCLL 281853Z 16014G19KT 10SM SCT035 BKN044 32/23 A2990 RMK AO2 SLP120 T03220233
KCLL 281753Z 16012KT 10SM SCT031 SCT040 31/24 A2992 RMK AO2 SLP125 T03060239 10311 20244 58008
KCLL 281702Z 16011KT 10SM SCT029 BKN043 30/23 A2993 RMK AO2 T03000233
KCLL 281653Z 14009KT 10SM BKN029 BKN043 29/24 A2994 RMK AO2 SLP132 T02940239
KCLL 281601Z 15012KT 10SM FEW022 SCT032 BKN090 29/24 A2994 RMK AO2 T02890239
KCLL 281553Z 12010KT 10SM SCT020 BKN028 BKN035 29/24 A2994 RMK AO2 SLP133 T02890239
KCLL 281453Z 10007KT 10SM FEW018 FEW023 BKN034 27/24 A2995 RMK AO2 SLP137 T02720239 50032
KCLL 281424Z 09006KT 10SM SCT025 SCT034 BKN045 27/24 A2996 RMK AO2 T02720239
KCLL 281353Z 06003KT 9SM OVC025 26/24 A2996 RMK AO2 SLP138 T02610239
KCLL 281327Z 02004KT 9SM BKN023 BKN028 26/24 A2994 RMK AO2 PRESRR T02560239
KCLL 281253Z AUTO 19004KT 8SM CLR 25/24 A2989 RMK AO2 SLP114 T02500239
KCLL 281153Z AUTO 21004KT 8SM CLR 24/24 A2986 RMK AO2 SLP105 T02440239 10250 20244 51017
KCLL 281100Z AUTO 20006KT 9SM SCT029 24/24 A2984 RMK AO2 T02440239
KCLL 281053Z AUTO 20006KT 9SM BKN029 25/24 A2984 RMK AO2 SLP100 T02500239
KCLL 280953Z AUTO 20007KT 9SM OVC019 25/24 A2983 RMK AO2 SLP095 T02500239
KCLL 280926Z AUTO 19009KT 10SM OVC016 25/24 A2982 RMK AO2 T02500239
KCLL 280910Z AUTO 19009KT 10SM OVC014 25/23 A2982 RMK AO2 T02500233
KCLL 280853Z AUTO 19007KT 10SM OVC015 25/23 A2981 RMK AO2 SLP088 T02500233 56013
KCLL 280833Z AUTO 17011KT 10SM BKN016 25/23 A2980 RMK AO2 T02500233
KCLL 280753Z AUTO 17011KT 10SM CLR 24/23 A2981 RMK AO2 SLP088 T02440233
KCLL 280653Z AUTO 17011KT 10SM CLR 24/23 A2984 RMK AO2 SLP099 T02440233
KCLL 280607Z AUTO 18010KT 10SM SCT014 25/23 A2985 RMK AO2 T02500233
KCLL 280553Z AUTO 18009KT 10SM BKN014 25/23 A2985 RMK AO2 SLP101 T02500233 10317 20250 403390250 58003
KCLL 280453Z AUTO 19013G18KT 10SM OVC014 26/23 A2987 RMK AO2 SLP110 T02560233
KCLL 280443Z AUTO 19010KT 10SM BKN014 26/23 A2987 RMK AO2 T02560233
KCLL 280353Z AUTO 18010KT 10SM CLR 26/23 A2986 RMK AO2 SLP106 T02610233
KCLL 280253Z AUTO 18010KT 10SM CLR 27/23 A2985 RMK AO2 SLP104 T02720228 53009
KCLL 280153Z AUTO 17011KT 10SM CLR 28/23 A2984 RMK AO2 SLP100 T02830233
KCLL 280053Z 18011KT 10SM CLR 30/22 A2983 RMK AO2 SLP094 T03000222
KCLL 272353Z 17013KT 10SM CLR 32/23 A2983 RMK AO2 SLP094 T03170233 10339 20317 55008


Page loaded:  11:33 UTC  |   04:33 AM Pacific  |   05:33 AM Mountain  |   06:33 AM Central  |   07:33 AM Eastern

 

ADVISORIES

FORECASTS

FORECASTS

OBSERVATIONS

USER TOOLS

ABOUT US